sensor_id;sensor_type;location;lat;lon;timestamp;temperature;humidity
55135;DHT22;41031;44.750;11.308;2023-01-01T00:00:15;10.80;96.90
55135;DHT22;41031;44.750;11.308;2023-01-01T00:02:42;10.80;96.90
55135;DHT22;41031;44.750;11.308;2023-01-01T00:05:09;10.80;96.90
55135;DHT22;41031;44.750;11.308;2023-01-01T00:07:36;10.70;96.90
55135;DHT22;41031;44.750;11.308;2023-01-01T00:10:04;10.70;96.90
55135;DHT22;41031;44.750;11.308;2023-01-01T00:12:49;10.70;96.90
55135;DHT22;41031;44.750;11.308;2023-01-01T00:15:16;10.70;96.90
55135;DHT22;41031;44.750;11.308;2023-01-01T00:17:43;10.70;96.80
55135;DHT22;41031;44.750;11.308;2023-01-01T00:20:11;10.60;96.80
55135;DHT22;41031;44.750;11.308;2023-01-01T00:22:38;10.60;96.80
55135;DHT22;41031;44.750;11.308;2023-01-01T00:25:23;10.60;96.80
55135;DHT22;41031;44.750;11.308;2023-01-01T00:27:50;10.50;96.80
55135;DHT22;41031;44.750;11.308;2023-01-01T00:30:17;10.50;96.80
55135;DHT22;41031;44.750;11.308;2023-01-01T00:32:44;10.50;96.80
55135;DHT22;41031;44.750;11.308;2023-01-01T00:35:25;10.40;96.80
55135;DHT22;41031;44.750;11.308;2023-01-01T00:37:53;10.40;96.80
55135;DHT22;41031;44.750;11.308;2023-01-01T00:40:21;10.40;96.80
55135;DHT22;41031;44.750;11.308;2023-01-01T00:42:48;10.30;96.70
55135;DHT22;41031;44.750;11.308;2023-01-01T00:45:16;10.30;96.70
55135;DHT22;41031;44.750;11.308;2023-01-01T00:47:49;10.30;96.80
55135;DHT22;41031;44.750;11.308;2023-01-01T00:50:18;10.20;96.70
55135;DHT22;41031;44.750;11.308;2023-01-01T00:52:45;10.20;96.70
55135;DHT22;41031;44.750;11.308;2023-01-01T00:55:12;10.20;96.70
55135;DHT22;41031;44.750;11.308;2023-01-01T00:57:39;10.10;96.80
55135;DHT22;41031;44.750;11.308;2023-01-01T01:00:07;10.10;96.80
55135;DHT22;41031;44.750;11.308;2023-01-01T01:02:34;10.10;96.80
55135;DHT22;41031;44.750;11.308;2023-01-01T01:05:02;10.10;96.90
55135;DHT22;41031;44.750;11.308;2023-01-01T01:07:37;10.10;96.90
55135;DHT22;41031;44.750;11.308;2023-01-01T01:10:05;10.10;96.90
55135;DHT22;41031;44.750;11.308;2023-01-01T01:12:33;10.10;97.00
55135;DHT22;41031;44.750;11.308;2023-01-01T01:15:01;10.10;97.00
55135;DHT22;41031;44.750;11.308;2023-01-01T01:17:28;10.10;97.00
55135;DHT22;41031;44.750;11.308;2023-01-01T01:19:55;10.10;96.90
55135;DHT22;41031;44.750;11.308;2023-01-01T01:22:22;10.10;97.00
55135;DHT22;41031;44.750;11.308;2023-01-01T01:24:55;10.20;97.00
55135;DHT22;41031;44.750;11.308;2023-01-01T01:27:23;10.20;97.00
55135;DHT22;41031;44.750;11.308;2023-01-01T01:29:50;10.20;97.10
55135;DHT22;41031;44.750;11.308;2023-01-01T01:32:18;10.20;97.10
55135;DHT22;41031;44.750;11.308;2023-01-01T01:34:45;10.20;97.20
55135;DHT22;41031;44.750;11.308;2023-01-01T01:37:13;10.30;97.20
55135;DHT22;41031;44.750;11.308;2023-01-01T01:39:40;10.30;97.20
55135;DHT22;41031;44.750;11.308;2023-01-01T01:42:07;10.30;97.20
55135;DHT22;41031;44.750;11.308;2023-01-01T01:47:48;10.40;97.20
55135;DHT22;41031;44.750;11.308;2023-01-01T01:55:28;10.40;97.20
55135;DHT22;41031;44.750;11.308;2023-01-01T01:57:56;10.40;97.10
55135;DHT22;41031;44.750;11.308;2023-01-01T02:00:24;10.40;97.10
55135;DHT22;41031;44.750;11.308;2023-01-01T02:05:27;10.40;97.10
55135;DHT22;41031;44.750;11.308;2023-01-01T02:07:57;10.40;97.00
55135;DHT22;41031;44.750;11.308;2023-01-01T02:10:26;10.40;97.00
55135;DHT22;41031;44.750;11.308;2023-01-01T02:12:53;10.40;97.00
55135;DHT22;41031;44.750;11.308;2023-01-01T02:15:22;10.40;97.00
55135;DHT22;41031;44.750;11.308;2023-01-01T02:17:53;10.40;97.00
55135;DHT22;41031;44.750;11.308;2023-01-01T02:20:37;10.40;97.00
55135;DHT22;41031;44.750;11.308;2023-01-01T02:31:43;10.40;96.90
55135;DHT22;41031;44.750;11.308;2023-01-01T02:34:14;10.40;96.90
55135;DHT22;41031;44.750;11.308;2023-01-01T02:36:48;10.50;96.80
55135;DHT22;41031;44.750;11.308;2023-01-01T02:39:19;10.50;96.80
55135;DHT22;41031;44.750;11.308;2023-01-01T02:41:49;10.40;96.70
55135;DHT22;41031;44.750;11.308;2023-01-01T02:44:18;10.40;96.70
55135;DHT22;41031;44.750;11.308;2023-01-01T02:46:47;10.40;96.70
55135;DHT22;41031;44.750;11.308;2023-01-01T02:49:14;10.40;96.70
55135;DHT22;41031;44.750;11.308;2023-01-01T02:56:53;10.40;96.70
55135;DHT22;41031;44.750;11.308;2023-01-01T03:10:36;10.30;96.60
55135;DHT22;41031;44.750;11.308;2023-01-01T03:16:26;10.30;96.50
55135;DHT22;41031;44.750;11.308;2023-01-01T03:19:15;10.30;96.50
55135;DHT22;41031;44.750;11.308;2023-01-01T03:21:53;10.20;96.50
55135;DHT22;41031;44.750;11.308;2023-01-01T03:27:02;10.20;96.40
55135;DHT22;41031;44.750;11.308;2023-01-01T03:29:33;10.10;96.40
55135;DHT22;41031;44.750;11.308;2023-01-01T03:32:03;10.10;96.40
55135;DHT22;41031;44.750;11.308;2023-01-01T03:34:38;10.10;96.40
55135;DHT22;41031;44.750;11.308;2023-01-01T03:37:11;10.00;96.40
55135;DHT22;41031;44.750;11.308;2023-01-01T03:39:51;10.00;96.40
55135;DHT22;41031;44.750;11.308;2023-01-01T03:44:49;9.90;96.40
55135;DHT22;41031;44.750;11.308;2023-01-01T03:47:18;9.90;96.40
55135;DHT22;41031;44.750;11.308;2023-01-01T03:49:46;9.90;96.50
55135;DHT22;41031;44.750;11.308;2023-01-01T03:55:11;9.80;96.50
55135;DHT22;41031;44.750;11.308;2023-01-01T03:58:00;9.80;96.50
55135;DHT22;41031;44.750;11.308;2023-01-01T04:00:37;9.70;96.50
55135;DHT22;41031;44.750;11.308;2023-01-01T04:05:46;9.70;96.50
55135;DHT22;41031;44.750;11.308;2023-01-01T04:08:14;9.70;96.60
55135;DHT22;41031;44.750;11.308;2023-01-01T04:10:45;9.60;96.60
55135;DHT22;41031;44.750;11.308;2023-01-01T04:13:13;9.60;96.60
55135;DHT22;41031;44.750;11.308;2023-01-01T04:15:41;9.60;96.60
55135;DHT22;41031;44.750;11.308;2023-01-01T04:18:08;9.60;96.60
55135;DHT22;41031;44.750;11.308;2023-01-01T04:20:35;9.50;96.60
55135;DHT22;41031;44.750;11.308;2023-01-01T04:23:02;9.50;96.60
55135;DHT22;41031;44.750;11.308;2023-01-01T04:25:30;9.40;96.60
55135;DHT22;41031;44.750;11.308;2023-01-01T04:27:57;9.40;96.60
55135;DHT22;41031;44.750;11.308;2023-01-01T04:30:24;9.40;96.60
55135;DHT22;41031;44.750;11.308;2023-01-01T04:32:53;9.40;96.60
55135;DHT22;41031;44.750;11.308;2023-01-01T04:35:21;9.30;96.60
55135;DHT22;41031;44.750;11.308;2023-01-01T04:37:48;9.30;96.60
55135;DHT22;41031;44.750;11.308;2023-01-01T04:40:15;9.20;96.60
55135;DHT22;41031;44.750;11.308;2023-01-01T04:42:42;9.20;96.70
55135;DHT22;41031;44.750;11.308;2023-01-01T04:45:10;9.20;96.70
55135;DHT22;41031;44.750;11.308;2023-01-01T04:47:41;9.10;96.80
55135;DHT22;41031;44.750;11.308;2023-01-01T04:50:09;9.10;96.80
55135;DHT22;41031;44.750;11.308;2023-01-01T04:52:36;9.00;96.80
55135;DHT22;41031;44.750;11.308;2023-01-01T04:55:03;9.00;96.80
55135;DHT22;41031;44.750;11.308;2023-01-01T04:57:31;9.00;96.80
55135;DHT22;41031;44.750;11.308;2023-01-01T04:59:58;8.90;96.80
55135;DHT22;41031;44.750;11.308;2023-01-01T05:02:25;8.90;96.90
55135;DHT22;41031;44.750;11.308;2023-01-01T05:04:53;8.90;96.90
55135;DHT22;41031;44.750;11.308;2023-01-01T05:07:20;8.90;97.00
55135;DHT22;41031;44.750;11.308;2023-01-01T05:09:47;8.90;97.00
55135;DHT22;41031;44.750;11.308;2023-01-01T05:12:14;8.90;97.00
55135;DHT22;41031;44.750;11.308;2023-01-01T05:14:41;8.80;97.00
55135;DHT22;41031;44.750;11.308;2023-01-01T05:17:08;8.80;97.10
55135;DHT22;41031;44.750;11.308;2023-01-01T05:19:35;8.80;97.10
55135;DHT22;41031;44.750;11.308;2023-01-01T05:22:02;8.80;97.10
55135;DHT22;41031;44.750;11.308;2023-01-01T05:24:36;8.80;97.10
55135;DHT22;41031;44.750;11.308;2023-01-01T05:27:03;8.80;97.20
55135;DHT22;41031;44.750;11.308;2023-01-01T05:29:30;8.80;97.10
55135;DHT22;41031;44.750;11.308;2023-01-01T05:31:57;8.80;97.10
55135;DHT22;41031;44.750;11.308;2023-01-01T05:34:26;8.80;97.10
55135;DHT22;41031;44.750;11.308;2023-01-01T05:36:53;8.70;97.10
55135;DHT22;41031;44.750;11.308;2023-01-01T05:39:20;8.70;97.10
55135;DHT22;41031;44.750;11.308;2023-01-01T05:41:47;8.70;97.20
55135;DHT22;41031;44.750;11.308;2023-01-01T05:44:14;8.80;97.20
55135;DHT22;41031;44.750;11.308;2023-01-01T05:46:43;8.80;97.50
55135;DHT22;41031;44.750;11.308;2023-01-01T05:49:11;8.80;97.30
55135;DHT22;41031;44.750;11.308;2023-01-01T05:51:38;8.80;97.30
55135;DHT22;41031;44.750;11.308;2023-01-01T05:54:05;8.80;97.30
55135;DHT22;41031;44.750;11.308;2023-01-01T05:56:32;8.80;97.30
55135;DHT22;41031;44.750;11.308;2023-01-01T05:59:00;8.80;97.20
55135;DHT22;41031;44.750;11.308;2023-01-01T06:01:29;8.80;97.20
55135;DHT22;41031;44.750;11.308;2023-01-01T06:03:57;8.80;97.20
55135;DHT22;41031;44.750;11.308;2023-01-01T06:06:27;8.80;97.20
55135;DHT22;41031;44.750;11.308;2023-01-01T06:08:59;8.80;97.20
55135;DHT22;41031;44.750;11.308;2023-01-01T06:11:27;8.80;97.20
55135;DHT22;41031;44.750;11.308;2023-01-01T06:13:56;8.80;97.20
55135;DHT22;41031;44.750;11.308;2023-01-01T06:16:25;8.80;97.10
55135;DHT22;41031;44.750;11.308;2023-01-01T06:18:53;8.80;97.20
55135;DHT22;41031;44.750;11.308;2023-01-01T06:21:22;8.80;97.20
55135;DHT22;41031;44.750;11.308;2023-01-01T06:23:50;8.80;97.30
55135;DHT22;41031;44.750;11.308;2023-01-01T06:26:20;8.80;97.30
55135;DHT22;41031;44.750;11.308;2023-01-01T06:28:47;8.80;97.30
55135;DHT22;41031;44.750;11.308;2023-01-01T06:31:16;8.80;97.30
55135;DHT22;41031;44.750;11.308;2023-01-01T06:33:44;8.80;97.30
55135;DHT22;41031;44.750;11.308;2023-01-01T06:36:15;8.90;97.30
55135;DHT22;41031;44.750;11.308;2023-01-01T06:38:45;8.80;97.20
55135;DHT22;41031;44.750;11.308;2023-01-01T06:41:14;8.80;97.20
55135;DHT22;41031;44.750;11.308;2023-01-01T06:43:42;8.80;97.20
55135;DHT22;41031;44.750;11.308;2023-01-01T06:46:27;8.80;97.20
55135;DHT22;41031;44.750;11.308;2023-01-01T06:48:57;8.80;97.40
55135;DHT22;41031;44.750;11.308;2023-01-01T06:51:27;8.80;97.20
55135;DHT22;41031;44.750;11.308;2023-01-01T06:53:57;8.80;97.20
55135;DHT22;41031;44.750;11.308;2023-01-01T06:56:26;8.80;97.20
55135;DHT22;41031;44.750;11.308;2023-01-01T06:58:53;8.70;97.10
55135;DHT22;41031;44.750;11.308;2023-01-01T07:01:22;8.70;97.10
55135;DHT22;41031;44.750;11.308;2023-01-01T07:03:51;8.70;97.20
55135;DHT22;41031;44.750;11.308;2023-01-01T07:06:18;8.70;97.10
55135;DHT22;41031;44.750;11.308;2023-01-01T07:08:45;8.70;97.10
55135;DHT22;41031;44.750;11.308;2023-01-01T07:11:12;8.70;97.10
55135;DHT22;41031;44.750;11.308;2023-01-01T07:13:39;8.70;97.10
55135;DHT22;41031;44.750;11.308;2023-01-01T07:16:07;8.70;97.10
55135;DHT22;41031;44.750;11.308;2023-01-01T07:18:39;8.70;97.10
55135;DHT22;41031;44.750;11.308;2023-01-01T07:21:30;8.60;97.10
55135;DHT22;41031;44.750;11.308;2023-01-01T07:24:03;8.70;97.10
55135;DHT22;41031;44.750;11.308;2023-01-01T07:26:32;8.70;97.10
55135;DHT22;41031;44.750;11.308;2023-01-01T07:29:00;8.60;97.10
55135;DHT22;41031;44.750;11.308;2023-01-01T07:31:36;8.70;97.10
55135;DHT22;41031;44.750;11.308;2023-01-01T07:34:05;8.70;97.10
55135;DHT22;41031;44.750;11.308;2023-01-01T07:36:32;8.70;97.10
55135;DHT22;41031;44.750;11.308;2023-01-01T07:38:59;8.70;97.10
55135;DHT22;41031;44.750;11.308;2023-01-01T07:41:26;8.80;97.20
55135;DHT22;41031;44.750;11.308;2023-01-01T07:43:53;8.80;97.20
55135;DHT22;41031;44.750;11.308;2023-01-01T07:46:20;8.90;97.20
55135;DHT22;41031;44.750;11.308;2023-01-01T07:48:47;8.90;97.20
55135;DHT22;41031;44.750;11.308;2023-01-01T07:51:14;9.00;97.20
55135;DHT22;41031;44.750;11.308;2023-01-01T07:53:41;9.00;97.10
55135;DHT22;41031;44.750;11.308;2023-01-01T07:56:09;9.10;97.10
55135;DHT22;41031;44.750;11.308;2023-01-01T07:58:39;9.20;97.10
55135;DHT22;41031;44.750;11.308;2023-01-01T08:01:10;9.20;97.10
55135;DHT22;41031;44.750;11.308;2023-01-01T08:03:38;9.30;97.00
55135;DHT22;41031;44.750;11.308;2023-01-01T08:06:09;9.40;97.00
55135;DHT22;41031;44.750;11.308;2023-01-01T08:08:37;9.40;96.90
55135;DHT22;41031;44.750;11.308;2023-01-01T08:11:04;9.50;96.90
55135;DHT22;41031;44.750;11.308;2023-01-01T08:13:31;9.60;96.80
55135;DHT22;41031;44.750;11.308;2023-01-01T08:15:59;9.70;96.70
55135;DHT22;41031;44.750;11.308;2023-01-01T08:18:26;9.80;96.70
55135;DHT22;41031;44.750;11.308;2023-01-01T08:20:53;9.90;96.60
55135;DHT22;41031;44.750;11.308;2023-01-01T08:23:21;9.90;96.60
55135;DHT22;41031;44.750;11.308;2023-01-01T08:25:47;10.00;96.50
55135;DHT22;41031;44.750;11.308;2023-01-01T08:28:15;10.10;96.40
55135;DHT22;41031;44.750;11.308;2023-01-01T08:30:41;10.10;96.30
55135;DHT22;41031;44.750;11.308;2023-01-01T08:33:10;10.20;96.30
55135;DHT22;41031;44.750;11.308;2023-01-01T08:35:40;10.20;96.30
55135;DHT22;41031;44.750;11.308;2023-01-01T08:38:10;10.30;96.30
55135;DHT22;41031;44.750;11.308;2023-01-01T08:40:37;10.30;96.20
55135;DHT22;41031;44.750;11.308;2023-01-01T08:43:05;10.30;96.10
55135;DHT22;41031;44.750;11.308;2023-01-01T08:45:32;10.30;96.10
55135;DHT22;41031;44.750;11.308;2023-01-01T08:47:59;10.30;96.10
55135;DHT22;41031;44.750;11.308;2023-01-01T08:50:26;10.30;96.10
55135;DHT22;41031;44.750;11.308;2023-01-01T08:52:54;10.30;96.10
55135;DHT22;41031;44.750;11.308;2023-01-01T08:55:21;10.30;96.10
55135;DHT22;41031;44.750;11.308;2023-01-01T08:57:48;10.30;96.10
55135;DHT22;41031;44.750;11.308;2023-01-01T09:00:16;10.30;96.10
55135;DHT22;41031;44.750;11.308;2023-01-01T09:02:43;10.30;96.10
55135;DHT22;41031;44.750;11.308;2023-01-01T09:05:10;10.40;96.20
55135;DHT22;41031;44.750;11.308;2023-01-01T09:07:37;10.40;96.20
55135;DHT22;41031;44.750;11.308;2023-01-01T09:10:05;10.50;96.20
55135;DHT22;41031;44.750;11.308;2023-01-01T09:12:32;10.60;96.10
55135;DHT22;41031;44.750;11.308;2023-01-01T09:14:59;10.70;96.10
55135;DHT22;41031;44.750;11.308;2023-01-01T09:17:26;10.70;96.10
55135;DHT22;41031;44.750;11.308;2023-01-01T09:19:54;10.80;96.10
55135;DHT22;41031;44.750;11.308;2023-01-01T09:22:21;11.00;96.10
55135;DHT22;41031;44.750;11.308;2023-01-01T09:24:48;11.00;95.90
55135;DHT22;41031;44.750;11.308;2023-01-01T09:27:15;11.10;95.90
55135;DHT22;41031;44.750;11.308;2023-01-01T09:29:42;11.20;95.80
55135;DHT22;41031;44.750;11.308;2023-01-01T09:32:09;11.30;95.80
55135;DHT22;41031;44.750;11.308;2023-01-01T09:34:36;11.40;95.70
55135;DHT22;41031;44.750;11.308;2023-01-01T09:37:03;11.50;95.60
55135;DHT22;41031;44.750;11.308;2023-01-01T09:39:30;11.50;95.50
55135;DHT22;41031;44.750;11.308;2023-01-01T09:45:25;11.70;95.40
55135;DHT22;41031;44.750;11.308;2023-01-01T09:47:59;11.80;95.30
55135;DHT22;41031;44.750;11.308;2023-01-01T09:50:40;11.90;95.20
55135;DHT22;41031;44.750;11.308;2023-01-01T09:53:44;11.90;95.20
55135;DHT22;41031;44.750;11.308;2023-01-01T09:56:18;11.90;95.10
55135;DHT22;41031;44.750;11.308;2023-01-01T09:58:46;12.00;95.10
55135;DHT22;41031;44.750;11.308;2023-01-01T10:01:33;12.10;95.10
55135;DHT22;41031;44.750;11.308;2023-01-01T10:15:49;12.50;94.70
55135;DHT22;41031;44.750;11.308;2023-01-01T10:18:22;12.60;94.60
55135;DHT22;41031;44.750;11.308;2023-01-01T10:21:19;12.70;94.40
55135;DHT22;41031;44.750;11.308;2023-01-01T10:26:53;12.80;94.40
55135;DHT22;41031;44.750;11.308;2023-01-01T10:32:28;12.80;94.30
55135;DHT22;41031;44.750;11.308;2023-01-01T10:34:56;12.90;94.30
55135;DHT22;41031;44.750;11.308;2023-01-01T10:37:25;12.90;94.30
55135;DHT22;41031;44.750;11.308;2023-01-01T10:39:54;12.90;94.40
55135;DHT22;41031;44.750;11.308;2023-01-01T10:42:21;12.90;94.30
55135;DHT22;41031;44.750;11.308;2023-01-01T10:44:51;12.90;94.30
55135;DHT22;41031;44.750;11.308;2023-01-01T10:47:27;13.00;94.30
55135;DHT22;41031;44.750;11.308;2023-01-01T10:49:59;13.00;94.40
55135;DHT22;41031;44.750;11.308;2023-01-01T10:52:37;13.00;94.40
55135;DHT22;41031;44.750;11.308;2023-01-01T10:55:18;13.10;94.30
55135;DHT22;41031;44.750;11.308;2023-01-01T10:57:46;13.10;94.30
55135;DHT22;41031;44.750;11.308;2023-01-01T11:00:22;13.20;94.20
55135;DHT22;41031;44.750;11.308;2023-01-01T11:03:25;13.20;94.10
55135;DHT22;41031;44.750;11.308;2023-01-01T11:08:32;13.30;94.10
55135;DHT22;41031;44.750;11.308;2023-01-01T11:11:01;13.40;94.10
55135;DHT22;41031;44.750;11.308;2023-01-01T11:13:29;13.50;94.10
55135;DHT22;41031;44.750;11.308;2023-01-01T11:15:57;13.60;94.10
55135;DHT22;41031;44.750;11.308;2023-01-01T11:18:30;13.60;94.00
55135;DHT22;41031;44.750;11.308;2023-01-01T11:21:04;13.70;93.90
55135;DHT22;41031;44.750;11.308;2023-01-01T11:23:38;13.80;93.80
55135;DHT22;41031;44.750;11.308;2023-01-01T11:26:18;13.80;93.50
55135;DHT22;41031;44.750;11.308;2023-01-01T11:31:37;13.90;93.40
55135;DHT22;41031;44.750;11.308;2023-01-01T11:34:33;14.00;93.40
55135;DHT22;41031;44.750;11.308;2023-01-01T11:39:45;14.00;93.20
55135;DHT22;41031;44.750;11.308;2023-01-01T11:42:31;14.00;93.20
55135;DHT22;41031;44.750;11.308;2023-01-01T11:47:41;14.10;93.10
55135;DHT22;41031;44.750;11.308;2023-01-01T11:50:27;14.10;93.10
55135;DHT22;41031;44.750;11.308;2023-01-01T11:52:56;14.10;93.10
55135;DHT22;41031;44.750;11.308;2023-01-01T12:00:55;14.30;92.90
55135;DHT22;41031;44.750;11.308;2023-01-01T12:03:35;14.40;92.90
55135;DHT22;41031;44.750;11.308;2023-01-01T12:06:17;14.40;92.80
55135;DHT22;41031;44.750;11.308;2023-01-01T12:08:53;14.40;92.60
55135;DHT22;41031;44.750;11.308;2023-01-01T12:14:30;14.50;92.50
55135;DHT22;41031;44.750;11.308;2023-01-01T12:17:13;14.50;92.50
55135;DHT22;41031;44.750;11.308;2023-01-01T12:20:10;14.50;92.40
55135;DHT22;41031;44.750;11.308;2023-01-01T12:22:34;14.40;92.40
55135;DHT22;41031;44.750;11.308;2023-01-01T12:25:02;14.40;92.40
55135;DHT22;41031;44.750;11.308;2023-01-01T12:30:14;14.30;92.50
55135;DHT22;41031;44.750;11.308;2023-01-01T12:41:11;14.10;92.70
55135;DHT22;41031;44.750;11.308;2023-01-01T12:57:55;13.90;92.70
55135;DHT22;41031;44.750;11.308;2023-01-01T13:00:23;13.90;92.80
55135;DHT22;41031;44.750;11.308;2023-01-01T13:02:56;13.80;92.70
55135;DHT22;41031;44.750;11.308;2023-01-01T13:05:41;13.80;92.60
55135;DHT22;41031;44.750;11.308;2023-01-01T13:08:09;13.70;92.40
55135;DHT22;41031;44.750;11.308;2023-01-01T13:10:44;13.70;92.60
55135;DHT22;41031;44.750;11.308;2023-01-01T13:13:12;13.70;92.80
55135;DHT22;41031;44.750;11.308;2023-01-01T13:21:16;13.70;93.10
55135;DHT22;41031;44.750;11.308;2023-01-01T13:23:46;13.70;93.10
55135;DHT22;41031;44.750;11.308;2023-01-01T13:34:37;13.80;93.00
55135;DHT22;41031;44.750;11.308;2023-01-01T13:40:04;13.70;93.10
55135;DHT22;41031;44.750;11.308;2023-01-01T13:50:53;13.70;93.40
55135;DHT22;41031;44.750;11.308;2023-01-01T14:04:53;13.70;93.20
55135;DHT22;41031;44.750;11.308;2023-01-01T14:12:46;13.70;93.30
55135;DHT22;41031;44.750;11.308;2023-01-01T14:15:36;13.60;93.30
55135;DHT22;41031;44.750;11.308;2023-01-01T14:18:05;13.60;93.10
55135;DHT22;41031;44.750;11.308;2023-01-01T14:20:42;13.60;93.20
55135;DHT22;41031;44.750;11.308;2023-01-01T14:23:35;13.50;93.30
55135;DHT22;41031;44.750;11.308;2023-01-01T14:26:22;13.50;93.40
55135;DHT22;41031;44.750;11.308;2023-01-01T14:28:57;13.50;93.50
55135;DHT22;41031;44.750;11.308;2023-01-01T14:31:30;13.50;93.50
55135;DHT22;41031;44.750;11.308;2023-01-01T14:33:57;13.50;93.60
55135;DHT22;41031;44.750;11.308;2023-01-01T14:36:27;13.50;93.60
55135;DHT22;41031;44.750;11.308;2023-01-01T14:38:56;13.50;93.70
55135;DHT22;41031;44.750;11.308;2023-01-01T14:41:33;13.40;93.80
55135;DHT22;41031;44.750;11.308;2023-01-01T14:44:05;13.40;93.80
55135;DHT22;41031;44.750;11.308;2023-01-01T14:46:32;13.40;93.70
55135;DHT22;41031;44.750;11.308;2023-01-01T14:49:06;13.40;93.70
55135;DHT22;41031;44.750;11.308;2023-01-01T14:51:34;13.40;93.80
55135;DHT22;41031;44.750;11.308;2023-01-01T14:54:15;13.30;93.80
55135;DHT22;41031;44.750;11.308;2023-01-01T14:56:46;13.30;93.90
55135;DHT22;41031;44.750;11.308;2023-01-01T14:59:29;13.30;94.00
55135;DHT22;41031;44.750;11.308;2023-01-01T15:04:35;13.20;94.10
55135;DHT22;41031;44.750;11.308;2023-01-01T15:07:03;13.20;94.20
55135;DHT22;41031;44.750;11.308;2023-01-01T15:09:31;13.10;94.30
55135;DHT22;41031;44.750;11.308;2023-01-01T15:11:59;13.10;94.30
55135;DHT22;41031;44.750;11.308;2023-01-01T15:14:37;13.10;94.40
55135;DHT22;41031;44.750;11.308;2023-01-01T15:17:13;13.10;94.40
55135;DHT22;41031;44.750;11.308;2023-01-01T15:19:43;13.00;94.20
55135;DHT22;41031;44.750;11.308;2023-01-01T15:22:20;13.00;94.30
55135;DHT22;41031;44.750;11.308;2023-01-01T15:24:50;13.00;94.40
55135;DHT22;41031;44.750;11.308;2023-01-01T15:27:32;12.90;94.50
55135;DHT22;41031;44.750;11.308;2023-01-01T15:30:01;12.90;94.60
55135;DHT22;41031;44.750;11.308;2023-01-01T15:32:36;12.80;94.70
55135;DHT22;41031;44.750;11.308;2023-01-01T15:35:06;12.80;94.70
55135;DHT22;41031;44.750;11.308;2023-01-01T15:37:50;12.80;94.80
55135;DHT22;41031;44.750;11.308;2023-01-01T15:42:46;12.70;94.90
55135;DHT22;41031;44.750;11.308;2023-01-01T15:45:34;12.80;95.00
55135;DHT22;41031;44.750;11.308;2023-01-01T15:50:33;12.70;95.00
55135;DHT22;41031;44.750;11.308;2023-01-01T15:53:22;12.70;95.00
55135;DHT22;41031;44.750;11.308;2023-01-01T16:01:05;12.60;95.10
55135;DHT22;41031;44.750;11.308;2023-01-01T16:03:35;12.60;95.10
55135;DHT22;41031;44.750;11.308;2023-01-01T16:06:02;12.60;95.10
55135;DHT22;41031;44.750;11.308;2023-01-01T16:08:30;12.60;95.20
55135;DHT22;41031;44.750;11.308;2023-01-01T16:10:57;12.60;95.20
55135;DHT22;41031;44.750;11.308;2023-01-01T16:13:24;12.60;95.20
55135;DHT22;41031;44.750;11.308;2023-01-01T16:15:54;12.60;95.30
55135;DHT22;41031;44.750;11.308;2023-01-01T16:18:43;12.60;95.30
55135;DHT22;41031;44.750;11.308;2023-01-01T16:21:10;12.60;95.30
55135;DHT22;41031;44.750;11.308;2023-01-01T16:23:37;12.60;95.30
55135;DHT22;41031;44.750;11.308;2023-01-01T16:26:04;12.60;95.40
55135;DHT22;41031;44.750;11.308;2023-01-01T16:28:31;12.60;95.40
55135;DHT22;41031;44.750;11.308;2023-01-01T16:30:58;12.60;95.50
55135;DHT22;41031;44.750;11.308;2023-01-01T16:33:25;12.60;95.50
55135;DHT22;41031;44.750;11.308;2023-01-01T16:35:52;12.60;95.50
55135;DHT22;41031;44.750;11.308;2023-01-01T16:38:19;12.60;95.50
55135;DHT22;41031;44.750;11.308;2023-01-01T16:40:46;12.60;95.50
55135;DHT22;41031;44.750;11.308;2023-01-01T16:43:16;12.50;95.50
55135;DHT22;41031;44.750;11.308;2023-01-01T16:45:43;12.50;95.50
55135;DHT22;41031;44.750;11.308;2023-01-01T16:48:11;12.50;95.50
55135;DHT22;41031;44.750;11.308;2023-01-01T16:50:38;12.50;95.50
55135;DHT22;41031;44.750;11.308;2023-01-01T16:53:05;12.50;95.50
55135;DHT22;41031;44.750;11.308;2023-01-01T16:55:32;12.50;95.50
55135;DHT22;41031;44.750;11.308;2023-01-01T16:57:59;12.50;95.50
55135;DHT22;41031;44.750;11.308;2023-01-01T17:00:46;12.50;95.50
55135;DHT22;41031;44.750;11.308;2023-01-01T17:03:14;12.50;95.50
55135;DHT22;41031;44.750;11.308;2023-01-01T17:05:41;12.50;95.60
55135;DHT22;41031;44.750;11.308;2023-01-01T17:08:10;12.50;95.60
55135;DHT22;41031;44.750;11.308;2023-01-01T17:10:37;12.50;95.60
55135;DHT22;41031;44.750;11.308;2023-01-01T17:13:04;12.50;95.60
55135;DHT22;41031;44.750;11.308;2023-01-01T17:15:31;12.40;95.60
55135;DHT22;41031;44.750;11.308;2023-01-01T17:17:59;12.50;95.60
55135;DHT22;41031;44.750;11.308;2023-01-01T17:20:26;12.40;95.60
55135;DHT22;41031;44.750;11.308;2023-01-01T17:22:53;12.50;95.60
55135;DHT22;41031;44.750;11.308;2023-01-01T17:25:20;12.40;95.60
55135;DHT22;41031;44.750;11.308;2023-01-01T17:27:47;12.40;95.60
55135;DHT22;41031;44.750;11.308;2023-01-01T17:30:14;12.40;95.70
55135;DHT22;41031;44.750;11.308;2023-01-01T17:32:42;12.30;95.70
55135;DHT22;41031;44.750;11.308;2023-01-01T17:35:09;12.40;95.80
55135;DHT22;41031;44.750;11.308;2023-01-01T17:37:36;12.40;95.80
55135;DHT22;41031;44.750;11.308;2023-01-01T17:40:03;12.30;95.70
55135;DHT22;41031;44.750;11.308;2023-01-01T17:42:30;12.40;95.80
55135;DHT22;41031;44.750;11.308;2023-01-01T17:44:57;12.30;95.80
55135;DHT22;41031;44.750;11.308;2023-01-01T17:47:24;12.30;95.80
55135;DHT22;41031;44.750;11.308;2023-01-01T17:49:58;12.30;95.80
55135;DHT22;41031;44.750;11.308;2023-01-01T17:52:25;12.30;95.80
55135;DHT22;41031;44.750;11.308;2023-01-01T17:54:52;12.30;95.80
55135;DHT22;41031;44.750;11.308;2023-01-01T17:57:19;12.30;95.80
55135;DHT22;41031;44.750;11.308;2023-01-01T17:59:46;12.30;95.80
55135;DHT22;41031;44.750;11.308;2023-01-01T18:02:13;12.20;95.80
55135;DHT22;41031;44.750;11.308;2023-01-01T18:04:41;12.20;95.80
55135;DHT22;41031;44.750;11.308;2023-01-01T18:07:08;12.20;95.90
55135;DHT22;41031;44.750;11.308;2023-01-01T18:09:35;12.20;95.90
55135;DHT22;41031;44.750;11.308;2023-01-01T18:12:04;12.10;95.90
55135;DHT22;41031;44.750;11.308;2023-01-01T18:14:32;12.10;95.90
55135;DHT22;41031;44.750;11.308;2023-01-01T18:16:59;12.10;96.00
55135;DHT22;41031;44.750;11.308;2023-01-01T18:19:26;12.10;96.00
55135;DHT22;41031;44.750;11.308;2023-01-01T18:21:53;12.10;96.10
55135;DHT22;41031;44.750;11.308;2023-01-01T18:24:20;12.10;96.10
55135;DHT22;41031;44.750;11.308;2023-01-01T18:26:47;12.10;96.10
55135;DHT22;41031;44.750;11.308;2023-01-01T18:29:14;12.10;96.20